sensor_id;sensor_type;location;lat;lon;timestamp;temperature;humidity
3919;DHT22;1974;48.670;8.994;2024-02-26T05:31:15;6.70;99.90
3919;DHT22;1974;48.670;8.994;2024-02-26T05:33:42;6.70;99.90
3919;DHT22;1974;48.670;8.994;2024-02-26T05:36:09;6.70;99.90
3919;DHT22;1974;48.670;8.994;2024-02-26T05:38:35;6.70;99.90
3919;DHT22;1974;48.670;8.994;2024-02-26T05:41:02;6.70;99.90
3919;DHT22;1974;48.670;8.994;2024-02-26T05:43:30;6.60;99.90
3919;DHT22;1974;48.670;8.994;2024-02-26T05:45:57;6.60;99.90
3919;DHT22;1974;48.670;8.994;2024-02-26T05:48:25;6.50;99.90
3919;DHT22;1974;48.670;8.994;2024-02-26T05:50:51;6.50;99.90
3919;DHT22;1974;48.670;8.994;2024-02-26T05:53:18;6.40;99.90
3919;DHT22;1974;48.670;8.994;2024-02-26T05:55:45;6.40;99.90
3919;DHT22;1974;48.670;8.994;2024-02-26T05:58:11;6.30;99.90
3919;DHT22;1974;48.670;8.994;2024-02-26T06:00:39;6.20;99.90
3919;DHT22;1974;48.670;8.994;2024-02-26T06:03:06;6.10;99.90
3919;DHT22;1974;48.670;8.994;2024-02-26T06:05:34;6.10;99.90
3919;DHT22;1974;48.670;8.994;2024-02-26T06:08:01;6.10;99.90
3919;DHT22;1974;48.670;8.994;2024-02-26T06:10:28;6.10;99.90
3919;DHT22;1974;48.670;8.994;2024-02-26T06:12:54;6.10;99.90
3919;DHT22;1974;48.670;8.994;2024-02-26T06:15:21;6.20;99.90
3919;DHT22;1974;48.670;8.994;2024-02-26T06:17:48;6.20;99.90
3919;DHT22;1974;48.670;8.994;2024-02-26T06:20:15;6.20;99.90
3919;DHT22;1974;48.670;8.994;2024-02-26T06:22:43;6.20;99.90
3919;DHT22;1974;48.670;8.994;2024-02-26T06:25:10;6.20;99.90
3919;DHT22;1974;48.670;8.994;2024-02-26T06:27:37;6.20;99.90
3919;DHT22;1974;48.670;8.994;2024-02-26T06:30:04;6.20;99.90
3919;DHT22;1974;48.670;8.994;2024-02-26T06:32:31;6.20;99.90
3919;DHT22;1974;48.670;8.994;2024-02-26T06:34:58;6.20;99.90
3919;DHT22;1974;48.670;8.994;2024-02-26T06:37:25;6.20;99.90
3919;DHT22;1974;48.670;8.994;2024-02-26T06:39:53;6.10;99.90
3919;DHT22;1974;48.670;8.994;2024-02-26T06:42:20;6.20;99.90
3919;DHT22;1974;48.670;8.994;2024-02-26T06:44:46;6.30;99.90
3919;DHT22;1974;48.670;8.994;2024-02-26T06:47:13;6.40;99.90
3919;DHT22;1974;48.670;8.994;2024-02-26T06:49:40;6.50;99.90
3919;DHT22;1974;48.670;8.994;2024-02-26T06:52:06;6.50;99.90
3919;DHT22;1974;48.670;8.994;2024-02-26T06:54:33;6.60;99.90
3919;DHT22;1974;48.670;8.994;2024-02-26T06:57:01;6.70;99.90
3919;DHT22;1974;48.670;8.994;2024-02-26T06:59:28;6.70;99.90
3919;DHT22;1974;48.670;8.994;2024-02-26T07:01:55;6.80;99.90
3919;DHT22;1974;48.670;8.994;2024-02-26T07:04:22;6.90;99.90
3919;DHT22;1974;48.670;8.994;2024-02-26T07:06:48;6.90;99.90
3919;DHT22;1974;48.670;8.994;2024-02-26T07:09:15;7.00;99.90
3919;DHT22;1974;48.670;8.994;2024-02-26T07:11:42;7.10;99.90
3919;DHT22;1974;48.670;8.994;2024-02-26T07:14:11;7.10;99.90
3919;DHT22;1974;48.670;8.994;2024-02-26T07:16:38;7.10;99.90
3919;DHT22;1974;48.670;8.994;2024-02-26T07:19:05;7.10;99.90
3919;DHT22;1974;48.670;8.994;2024-02-26T07:21:32;7.20;99.90
3919;DHT22;1974;48.670;8.994;2024-02-26T07:23:59;7.20;99.90
3919;DHT22;1974;48.670;8.994;2024-02-26T07:26:26;7.20;99.90
3919;DHT22;1974;48.670;8.994;2024-02-26T07:28:52;7.40;99.90
3919;DHT22;1974;48.670;8.994;2024-02-26T07:31:20;7.30;99.90
3919;DHT22;1974;48.670;8.994;2024-02-26T07:33:47;7.30;99.90
3919;DHT22;1974;48.670;8.994;2024-02-26T07:36:14;7.40;99.90
3919;DHT22;1974;48.670;8.994;2024-02-26T07:38:41;7.40;99.90
3919;DHT22;1974;48.670;8.994;2024-02-26T07:41:07;7.50;99.90
3919;DHT22;1974;48.670;8.994;2024-02-26T07:43:34;7.60;99.90
3919;DHT22;1974;48.670;8.994;2024-02-26T07:46:01;7.60;99.90
3919;DHT22;1974;48.670;8.994;2024-02-26T07:48:29;7.60;99.90
3919;DHT22;1974;48.670;8.994;2024-02-26T07:50:56;7.70;99.90
3919;DHT22;1974;48.670;8.994;2024-02-26T07:53:24;7.60;99.90
3919;DHT22;1974;48.670;8.994;2024-02-26T07:55:51;7.50;99.90
3919;DHT22;1974;48.670;8.994;2024-02-26T07:58:17;7.50;99.90
3919;DHT22;1974;48.670;8.994;2024-02-26T08:00:44;7.50;99.90
3919;DHT22;1974;48.670;8.994;2024-02-26T08:03:12;7.40;99.90
3919;DHT22;1974;48.670;8.994;2024-02-26T08:05:42;7.30;99.90
3919;DHT22;1974;48.670;8.994;2024-02-26T08:08:09;7.30;99.90
3919;DHT22;1974;48.670;8.994;2024-02-26T08:10:36;7.30;99.90
3919;DHT22;1974;48.670;8.994;2024-02-26T08:13:03;7.40;99.90
3919;DHT22;1974;48.670;8.994;2024-02-26T08:15:31;7.40;99.90
3919;DHT22;1974;48.670;8.994;2024-02-26T08:17:59;7.40;99.90
3919;DHT22;1974;48.670;8.994;2024-02-26T08:20:27;7.50;99.90
3919;DHT22;1974;48.670;8.994;2024-02-26T08:22:55;7.60;99.90
3919;DHT22;1974;48.670;8.994;2024-02-26T08:25:22;7.60;99.90
3919;DHT22;1974;48.670;8.994;2024-02-26T08:27:49;7.70;99.90
3919;DHT22;1974;48.670;8.994;2024-02-26T08:30:16;7.90;99.90
3919;DHT22;1974;48.670;8.994;2024-02-26T08:32:43;8.10;99.90
3919;DHT22;1974;48.670;8.994;2024-02-26T08:35:10;8.20;99.90
3919;DHT22;1974;48.670;8.994;2024-02-26T08:37:36;8.30;99.90
3919;DHT22;1974;48.670;8.994;2024-02-26T08:40:06;8.20;99.90
3919;DHT22;1974;48.670;8.994;2024-02-26T08:42:33;8.10;99.90
3919;DHT22;1974;48.670;8.994;2024-02-26T08:45:00;8.10;99.90
3919;DHT22;1974;48.670;8.994;2024-02-26T08:47:27;8.10;99.90
3919;DHT22;1974;48.670;8.994;2024-02-26T08:49:54;8.20;99.90
3919;DHT22;1974;48.670;8.994;2024-02-26T08:52:20;8.20;99.90
3919;DHT22;1974;48.670;8.994;2024-02-26T08:54:49;8.00;99.90
3919;DHT22;1974;48.670;8.994;2024-02-26T08:57:17;7.90;99.90
3919;DHT22;1974;48.670;8.994;2024-02-26T08:59:44;7.90;99.90
3919;DHT22;1974;48.670;8.994;2024-02-26T09:02:10;8.00;99.90
3919;DHT22;1974;48.670;8.994;2024-02-26T09:04:37;8.10;99.90
3919;DHT22;1974;48.670;8.994;2024-02-26T09:07:04;8.20;99.90
3919;DHT22;1974;48.670;8.994;2024-02-26T09:09:31;8.30;99.90
3919;DHT22;1974;48.670;8.994;2024-02-26T09:11:58;8.20;99.90
3919;DHT22;1974;48.670;8.994;2024-02-26T09:14:26;8.40;99.90
3919;DHT22;1974;48.670;8.994;2024-02-26T09:16:53;8.50;99.90
3919;DHT22;1974;48.670;8.994;2024-02-26T09:19:20;8.50;99.90
3919;DHT22;1974;48.670;8.994;2024-02-26T09:21:47;8.60;99.90
3919;DHT22;1974;48.670;8.994;2024-02-26T09:24:14;8.60;99.90
3919;DHT22;1974;48.670;8.994;2024-02-26T09:26:41;8.70;99.90
3919;DHT22;1974;48.670;8.994;2024-02-26T09:29:07;8.70;99.90
3919;DHT22;1974;48.670;8.994;2024-02-26T09:31:36;8.90;99.90
3919;DHT22;1974;48.670;8.994;2024-02-26T09:34:02;9.00;99.90
3919;DHT22;1974;48.670;8.994;2024-02-26T09:36:30;9.20;99.90
3919;DHT22;1974;48.670;8.994;2024-02-26T09:38:56;9.40;99.90
3919;DHT22;1974;48.670;8.994;2024-02-26T09:41:23;9.80;99.90
3919;DHT22;1974;48.670;8.994;2024-02-26T09:43:56;10.30;99.90
3919;DHT22;1974;48.670;8.994;2024-02-26T09:46:23;10.80;99.90
3919;DHT22;1974;48.670;8.994;2024-02-26T09:48:51;11.60;99.90
3919;DHT22;1974;48.670;8.994;2024-02-26T09:51:19;12.30;99.90
3919;DHT22;1974;48.670;8.994;2024-02-26T09:53:47;12.70;99.90
3919;DHT22;1974;48.670;8.994;2024-02-26T09:56:15;12.90;99.90
3919;DHT22;1974;48.670;8.994;2024-02-26T09:58:42;12.80;99.90
3919;DHT22;1974;48.670;8.994;2024-02-26T10:01:13;12.80;99.90
3919;DHT22;1974;48.670;8.994;2024-02-26T10:03:41;12.90;99.90
3919;DHT22;1974;48.670;8.994;2024-02-26T10:06:11;13.10;99.90
3919;DHT22;1974;48.670;8.994;2024-02-26T10:08:38;13.40;99.90
3919;DHT22;1974;48.670;8.994;2024-02-26T10:11:07;13.70;99.90
3919;DHT22;1974;48.670;8.994;2024-02-26T10:13:34;14.00;99.90
3919;DHT22;1974;48.670;8.994;2024-02-26T10:16:01;14.30;99.90
3919;DHT22;1974;48.670;8.994;2024-02-26T10:18:45;14.70;99.90
3919;DHT22;1974;48.670;8.994;2024-02-26T10:21:13;14.80;99.90
3919;DHT22;1974;48.670;8.994;2024-02-26T10:23:41;14.60;99.90
3919;DHT22;1974;48.670;8.994;2024-02-26T10:26:10;14.50;99.90
3919;DHT22;1974;48.670;8.994;2024-02-26T10:28:37;14.30;99.90
3919;DHT22;1974;48.670;8.994;2024-02-26T10:31:04;14.00;99.90
3919;DHT22;1974;48.670;8.994;2024-02-26T10:33:33;13.80;99.90
3919;DHT22;1974;48.670;8.994;2024-02-26T10:36:01;13.50;99.90
3919;DHT22;1974;48.670;8.994;2024-02-26T10:38:29;13.30;99.90
3919;DHT22;1974;48.670;8.994;2024-02-26T10:40:56;12.70;99.90
3919;DHT22;1974;48.670;8.994;2024-02-26T10:43:23;12.60;99.90
3919;DHT22;1974;48.670;8.994;2024-02-26T10:45:49;12.40;99.90
3919;DHT22;1974;48.670;8.994;2024-02-26T10:48:16;12.40;99.90
3919;DHT22;1974;48.670;8.994;2024-02-26T10:50:44;12.80;99.90
3919;DHT22;1974;48.670;8.994;2024-02-26T10:53:17;13.00;99.90
3919;DHT22;1974;48.670;8.994;2024-02-26T10:55:49;13.20;99.90
3919;DHT22;1974;48.670;8.994;2024-02-26T10:58:16;13.60;99.90
3919;DHT22;1974;48.670;8.994;2024-02-26T11:00:43;14.20;99.90
3919;DHT22;1974;48.670;8.994;2024-02-26T11:03:13;14.50;99.90
3919;DHT22;1974;48.670;8.994;2024-02-26T11:05:41;14.80;99.90
3919;DHT22;1974;48.670;8.994;2024-02-26T11:08:09;15.30;99.90
3919;DHT22;1974;48.670;8.994;2024-02-26T11:10:37;15.50;99.90
3919;DHT22;1974;48.670;8.994;2024-02-26T11:13:05;15.60;99.90
3919;DHT22;1974;48.670;8.994;2024-02-26T11:15:33;15.10;99.90
3919;DHT22;1974;48.670;8.994;2024-02-26T11:18:00;14.40;99.90
3919;DHT22;1974;48.670;8.994;2024-02-26T11:20:28;13.90;99.90
3919;DHT22;1974;48.670;8.994;2024-02-26T11:22:55;13.30;99.90
3919;DHT22;1974;48.670;8.994;2024-02-26T11:25:22;13.10;99.90
3919;DHT22;1974;48.670;8.994;2024-02-26T11:27:54;12.80;99.90
3919;DHT22;1974;48.670;8.994;2024-02-26T11:30:25;12.60;99.90
3919;DHT22;1974;48.670;8.994;2024-02-26T11:32:52;12.70;99.90
3919;DHT22;1974;48.670;8.994;2024-02-26T11:35:19;12.50;99.90
3919;DHT22;1974;48.670;8.994;2024-02-26T11:37:53;12.40;99.90
3919;DHT22;1974;48.670;8.994;2024-02-26T11:40:22;12.60;99.90
3919;DHT22;1974;48.670;8.994;2024-02-26T11:42:50;12.50;99.90
3919;DHT22;1974;48.670;8.994;2024-02-26T11:45:52;12.60;99.90
3919;DHT22;1974;48.670;8.994;2024-02-26T11:48:23;12.60;99.90
3919;DHT22;1974;48.670;8.994;2024-02-26T11:50:51;12.80;99.90
3919;DHT22;1974;48.670;8.994;2024-02-26T11:53:22;12.70;99.90
3919;DHT22;1974;48.670;8.994;2024-02-26T11:56:15;12.60;99.90
3919;DHT22;1974;48.670;8.994;2024-02-26T11:58:47;12.40;99.90
3919;DHT22;1974;48.670;8.994;2024-02-26T12:01:42;12.60;99.90
3919;DHT22;1974;48.670;8.994;2024-02-26T12:04:12;12.70;99.90
3919;DHT22;1974;48.670;8.994;2024-02-26T12:06:47;12.70;99.90
3919;DHT22;1974;48.670;8.994;2024-02-26T12:09:35;12.80;99.90
3919;DHT22;1974;48.670;8.994;2024-02-26T12:12:04;12.50;99.90
3919;DHT22;1974;48.670;8.994;2024-02-26T12:14:33;12.50;99.90
3919;DHT22;1974;48.670;8.994;2024-02-26T12:17:03;12.40;99.90
3919;DHT22;1974;48.670;8.994;2024-02-26T12:19:33;12.40;99.90
3919;DHT22;1974;48.670;8.994;2024-02-26T12:22:00;12.40;99.90
3919;DHT22;1974;48.670;8.994;2024-02-26T12:24:27;12.50;99.90
3919;DHT22;1974;48.670;8.994;2024-02-26T12:26:53;12.50;99.90
3919;DHT22;1974;48.670;8.994;2024-02-26T12:29:20;12.60;99.90
3919;DHT22;1974;48.670;8.994;2024-02-26T12:31:47;12.80;99.90
3919;DHT22;1974;48.670;8.994;2024-02-26T12:34:16;12.80;99.90
3919;DHT22;1974;48.670;8.994;2024-02-26T12:36:42;12.70;99.90
3919;DHT22;1974;48.670;8.994;2024-02-26T12:39:09;13.10;99.90
3919;DHT22;1974;48.670;8.994;2024-02-26T12:41:38;13.00;99.90
3919;DHT22;1974;48.670;8.994;2024-02-26T12:44:04;13.30;99.90
3919;DHT22;1974;48.670;8.994;2024-02-26T12:46:32;13.30;99.90
3919;DHT22;1974;48.670;8.994;2024-02-26T12:48:59;13.10;99.90
3919;DHT22;1974;48.670;8.994;2024-02-26T12:51:27;13.10;99.90
3919;DHT22;1974;48.670;8.994;2024-02-26T12:53:55;13.00;99.90
3919;DHT22;1974;48.670;8.994;2024-02-26T12:56:23;13.00;99.90
3919;DHT22;1974;48.670;8.994;2024-02-26T12:58:50;13.10;99.90
3919;DHT22;1974;48.670;8.994;2024-02-26T13:01:22;13.10;99.90
3919;DHT22;1974;48.670;8.994;2024-02-26T13:03:50;13.20;99.90
3919;DHT22;1974;48.670;8.994;2024-02-26T13:06:17;13.30;99.90
3919;DHT22;1974;48.670;8.994;2024-02-26T13:08:46;13.30;99.90
3919;DHT22;1974;48.670;8.994;2024-02-26T13:11:13;13.40;99.90
3919;DHT22;1974;48.670;8.994;2024-02-26T13:13:40;13.40;99.90
3919;DHT22;1974;48.670;8.994;2024-02-26T13:16:08;13.40;99.90
3919;DHT22;1974;48.670;8.994;2024-02-26T13:18:35;13.40;99.90
3919;DHT22;1974;48.670;8.994;2024-02-26T13:21:09;13.50;99.90
3919;DHT22;1974;48.670;8.994;2024-02-26T13:23:37;13.40;99.90
3919;DHT22;1974;48.670;8.994;2024-02-26T13:26:05;13.40;99.90
3919;DHT22;1974;48.670;8.994;2024-02-26T13:28:32;13.30;99.90
3919;DHT22;1974;48.670;8.994;2024-02-26T13:31:00;13.20;99.90
3919;DHT22;1974;48.670;8.994;2024-02-26T13:33:29;13.10;99.90
3919;DHT22;1974;48.670;8.994;2024-02-26T13:35:56;13.20;99.90
3919;DHT22;1974;48.670;8.994;2024-02-26T13:38:23;13.20;99.90
3919;DHT22;1974;48.670;8.994;2024-02-26T13:40:50;13.20;99.90
3919;DHT22;1974;48.670;8.994;2024-02-26T13:43:19;13.10;99.90
3919;DHT22;1974;48.670;8.994;2024-02-26T13:45:46;13.10;99.90
3919;DHT22;1974;48.670;8.994;2024-02-26T13:48:14;13.20;99.90
3919;DHT22;1974;48.670;8.994;2024-02-26T13:50:42;13.20;99.90
3919;DHT22;1974;48.670;8.994;2024-02-26T13:53:10;13.10;99.90
3919;DHT22;1974;48.670;8.994;2024-02-26T13:55:37;13.10;99.90
3919;DHT22;1974;48.670;8.994;2024-02-26T13:58:05;13.00;99.90
3919;DHT22;1974;48.670;8.994;2024-02-26T14:00:33;13.10;99.90
3919;DHT22;1974;48.670;8.994;2024-02-26T14:03:01;13.10;99.90
3919;DHT22;1974;48.670;8.994;2024-02-26T14:05:28;13.00;99.90
3919;DHT22;1974;48.670;8.994;2024-02-26T14:07:55;13.00;99.90
3919;DHT22;1974;48.670;8.994;2024-02-26T14:10:22;13.00;99.90
3919;DHT22;1974;48.670;8.994;2024-02-26T14:12:49;12.90;99.90
3919;DHT22;1974;48.670;8.994;2024-02-26T14:15:16;12.80;99.90
3919;DHT22;1974;48.670;8.994;2024-02-26T14:17:44;12.70;99.90
3919;DHT22;1974;48.670;8.994;2024-02-26T14:20:11;12.60;99.90
3919;DHT22;1974;48.670;8.994;2024-02-26T14:22:38;12.60;99.90
3919;DHT22;1974;48.670;8.994;2024-02-26T14:25:05;12.60;99.90
3919;DHT22;1974;48.670;8.994;2024-02-26T14:27:34;12.60;99.90
3919;DHT22;1974;48.670;8.994;2024-02-26T14:30:01;12.60;99.90
3919;DHT22;1974;48.670;8.994;2024-02-26T14:32:28;12.50;99.90
3919;DHT22;1974;48.670;8.994;2024-02-26T14:34:57;12.50;99.90
3919;DHT22;1974;48.670;8.994;2024-02-26T14:37:24;12.60;99.90
3919;DHT22;1974;48.670;8.994;2024-02-26T14:39:50;12.50;99.90
3919;DHT22;1974;48.670;8.994;2024-02-26T14:42:18;12.40;99.90
3919;DHT22;1974;48.670;8.994;2024-02-26T14:44:45;12.30;99.90
3919;DHT22;1974;48.670;8.994;2024-02-26T14:47:13;12.30;99.90
3919;DHT22;1974;48.670;8.994;2024-02-26T14:49:39;12.30;99.90
3919;DHT22;1974;48.670;8.994;2024-02-26T14:52:08;12.30;99.90
3919;DHT22;1974;48.670;8.994;2024-02-26T14:54:34;12.30;99.90
3919;DHT22;1974;48.670;8.994;2024-02-26T14:57:04;12.40;99.90
3919;DHT22;1974;48.670;8.994;2024-02-26T14:59:32;12.30;99.90
3919;DHT22;1974;48.670;8.994;2024-02-26T15:01:59;12.30;99.90
3919;DHT22;1974;48.670;8.994;2024-02-26T15:04:26;12.20;99.90
3919;DHT22;1974;48.670;8.994;2024-02-26T15:06:53;12.30;99.90
3919;DHT22;1974;48.670;8.994;2024-02-26T15:09:21;12.30;99.90
3919;DHT22;1974;48.670;8.994;2024-02-26T15:11:47;12.30;99.90
3919;DHT22;1974;48.670;8.994;2024-02-26T15:14:14;12.30;99.90
3919;DHT22;1974;48.670;8.994;2024-02-26T15:16:41;12.30;99.90
3919;DHT22;1974;48.670;8.994;2024-02-26T15:19:08;12.40;99.90
3919;DHT22;1974;48.670;8.994;2024-02-26T15:21:34;12.40;99.90
3919;DHT22;1974;48.670;8.994;2024-02-26T15:24:08;12.40;99.90
3919;DHT22;1974;48.670;8.994;2024-02-26T15:26:37;12.40;99.90
3919;DHT22;1974;48.670;8.994;2024-02-26T15:29:05;12.40;99.90
3919;DHT22;1974;48.670;8.994;2024-02-26T15:31:34;12.30;99.90
3919;DHT22;1974;48.670;8.994;2024-02-26T15:34:01;12.40;99.90
3919;DHT22;1974;48.670;8.994;2024-02-26T15:36:28;12.30;99.90
3919;DHT22;1974;48.670;8.994;2024-02-26T15:38:55;12.20;99.90
3919;DHT22;1974;48.670;8.994;2024-02-26T15:41:22;12.20;99.90
3919;DHT22;1974;48.670;8.994;2024-02-26T15:43:51;12.20;99.90
3919;DHT22;1974;48.670;8.994;2024-02-26T15:46:17;12.30;99.90
3919;DHT22;1974;48.670;8.994;2024-02-26T15:48:44;12.10;99.90
3919;DHT22;1974;48.670;8.994;2024-02-26T15:51:18;12.10;99.90
3919;DHT22;1974;48.670;8.994;2024-02-26T15:53:45;12.10;99.90
3919;DHT22;1974;48.670;8.994;2024-02-26T15:56:12;12.10;99.90
3919;DHT22;1974;48.670;8.994;2024-02-26T15:58:40;12.10;99.90
3919;DHT22;1974;48.670;8.994;2024-02-26T16:01:08;12.10;99.90
3919;DHT22;1974;48.670;8.994;2024-02-26T16:03:37;12.00;99.90
3919;DHT22;1974;48.670;8.994;2024-02-26T16:06:04;11.90;99.90
3919;DHT22;1974;48.670;8.994;2024-02-26T16:08:31;11.90;99.90
3919;DHT22;1974;48.670;8.994;2024-02-26T16:10:58;11.90;99.90
3919;DHT22;1974;48.670;8.994;2024-02-26T16:13:25;11.90;99.90
3919;DHT22;1974;48.670;8.994;2024-02-26T16:15:58;11.80;99.90
3919;DHT22;1974;48.670;8.994;2024-02-26T16:18:28;11.70;99.90
3919;DHT22;1974;48.670;8.994;2024-02-26T16:20:54;11.70;99.90
3919;DHT22;1974;48.670;8.994;2024-02-26T16:23:22;11.70;99.90
3919;DHT22;1974;48.670;8.994;2024-02-26T16:25:48;11.60;99.90
3919;DHT22;1974;48.670;8.994;2024-02-26T16:28:15;11.60;99.90
3919;DHT22;1974;48.670;8.994;2024-02-26T16:30:42;11.50;99.90
3919;DHT22;1974;48.670;8.994;2024-02-26T16:33:09;11.40;99.90
3919;DHT22;1974;48.670;8.994;2024-02-26T16:35:38;11.40;99.90
3919;DHT22;1974;48.670;8.994;2024-02-26T16:38:05;11.40;99.90
3919;DHT22;1974;48.670;8.994;2024-02-26T16:40:31;11.40;99.90
3919;DHT22;1974;48.670;8.994;2024-02-26T16:42:58;11.40;99.90
3919;DHT22;1974;48.670;8.994;2024-02-26T16:45:25;11.40;99.90
3919;DHT22;1974;48.670;8.994;2024-02-26T16:47:53;11.40;99.90
3919;DHT22;1974;48.670;8.994;2024-02-26T16:50:20;11.40;99.90
3919;DHT22;1974;48.670;8.994;2024-02-26T16:52:49;11.30;99.90
3919;DHT22;1974;48.670;8.994;2024-02-26T16:55:16;11.20;99.90
3919;DHT22;1974;48.670;8.994;2024-02-26T16:57:42;11.20;99.90
3919;DHT22;1974;48.670;8.994;2024-02-26T17:00:10;11.20;99.90
3919;DHT22;1974;48.670;8.994;2024-02-26T17:02:38;11.20;99.90
3919;DHT22;1974;48.670;8.994;2024-02-26T17:05:06;11.20;99.90
3919;DHT22;1974;48.670;8.994;2024-02-26T17:07:35;11.20;99.90
3919;DHT22;1974;48.670;8.994;2024-02-26T17:10:04;11.10;99.90
3919;DHT22;1974;48.670;8.994;2024-02-26T17:12:31;11.10;99.90
3919;DHT22;1974;48.670;8.994;2024-02-26T17:14:57;11.10;99.90
3919;DHT22;1974;48.670;8.994;2024-02-26T17:17:24;11.00;99.90
3919;DHT22;1974;48.670;8.994;2024-02-26T17:19:51;11.00;99.90
3919;DHT22;1974;48.670;8.994;2024-02-26T17:22:17;10.90;99.90
3919;DHT22;1974;48.670;8.994;2024-02-26T17:24:44;11.10;99.90
3919;DHT22;1974;48.670;8.994;2024-02-26T17:27:13;11.00;99.90
3919;DHT22;1974;48.670;8.994;2024-02-26T17:29:40;11.00;99.90
3919;DHT22;1974;48.670;8.994;2024-02-26T17:32:07;10.90;99.90
3919;DHT22;1974;48.670;8.994;2024-02-26T17:34:34;10.90;99.90
3919;DHT22;1974;48.670;8.994;2024-02-26T17:37:00;10.90;99.90
3919;DHT22;1974;48.670;8.994;2024-02-26T17:39:27;10.80;99.90
3919;DHT22;1974;48.670;8.994;2024-02-26T17:41:54;10.80;99.90
3919;DHT22;1974;48.670;8.994;2024-02-26T17:44:22;10.80;99.90
3919;DHT22;1974;48.670;8.994;2024-02-26T17:46:51;10.80;99.90
3919;DHT22;1974;48.670;8.994;2024-02-26T17:49:18;10.60;99.90
3919;DHT22;1974;48.670;8.994;2024-02-26T17:51:49;10.60;99.90
3919;DHT22;1974;48.670;8.994;2024-02-26T17:54:16;10.60;99.90
3919;DHT22;1974;48.670;8.994;2024-02-26T17:56:42;10.60;99.90
3919;DHT22;1974;48.670;8.994;2024-02-26T17:59:09;10.60;99.90
3919;DHT22;1974;48.670;8.994;2024-02-26T18:01:38;10.60;99.90
3919;DHT22;1974;48.670;8.994;2024-02-26T18:04:05;10.60;99.90
3919;DHT22;1974;48.670;8.994;2024-02-26T18:06:32;10.60;99.90
3919;DHT22;1974;48.670;8.994;2024-02-26T18:08:59;10.50;99.90
3919;DHT22;1974;48.670;8.994;2024-02-26T18:11:25;10.70;99.90
3919;DHT22;1974;48.670;8.994;2024-02-26T18:13:52;10.40;99.90
3919;DHT22;1974;48.670;8.994;2024-02-26T18:16:19;10.40;99.90
3919;DHT22;1974;48.670;8.994;2024-02-26T18:18:47;10.40;99.90
3919;DHT22;1974;48.670;8.994;2024-02-26T18:21:14;10.30;99.90
3919;DHT22;1974;48.670;8.994;2024-02-26T18:23:41;10.30;99.90
3919;DHT22;1974;48.670;8.994;2024-02-26T18:26:08;10.30;99.90
3919;DHT22;1974;48.670;8.994;2024-02-26T18:28:35;10.30;99.90
3919;DHT22;1974;48.670;8.994;2024-02-26T18:31:02;10.40;99.90
3919;DHT22;1974;48.670;8.994;2024-02-26T18:33:29;10.40;99.90
3919;DHT22;1974;48.670;8.994;2024-02-26T18:35:57;10.40;99.90
3919;DHT22;1974;48.670;8.994;2024-02-26T18:38:24;10.30;99.90
3919;DHT22;1974;48.670;8.994;2024-02-26T18:40:52;10.20;99.90
3919;DHT22;1974;48.670;8.994;2024-02-26T18:43:18;10.20;99.90
3919;DHT22;1974;48.670;8.994;2024-02-26T18:45:45;10.20;99.90
3919;DHT22;1974;48.670;8.994;2024-02-26T18:48:12;10.20;99.90
3919;DHT22;1974;48.670;8.994;2024-02-26T18:50:39;10.10;99.90
3919;DHT22;1974;48.670;8.994;2024-02-26T18:53:07;10.10;99.90
3919;DHT22;1974;48.670;8.994;2024-02-26T18:55:33;10.10;99.90
3919;DHT22;1974;48.670;8.994;2024-02-26T18:58:01;10.20;99.90
3919;DHT22;1974;48.670;8.994;2024-02-26T19:00:29;10.00;99.90
3919;DHT22;1974;48.670;8.994;2024-02-26T19:02:55;10.00;99.90
3919;DHT22;1974;48.670;8.994;2024-02-26T19:05:23;10.00;99.90
3919;DHT22;1974;48.670;8.994;2024-02-26T19:07:51;9.90;99.90
3919;DHT22;1974;48.670;8.994;2024-02-26T19:10:25;10.00;99.90
3919;DHT22;1974;48.670;8.994;2024-02-26T19:12:52;9.90;99.90
3919;DHT22;1974;48.670;8.994;2024-02-26T19:15:19;9.80;99.90
3919;DHT22;1974;48.670;8.994;2024-02-26T19:17:46;9.80;99.90
3919;DHT22;1974;48.670;8.994;2024-02-26T19:20:12;9.80;99.90
3919;DHT22;1974;48.670;8.994;2024-02-26T19:22:41;9.90;99.90
3919;DHT22;1974;48.670;8.994;2024-02-26T19:25:09;9.80;99.90
3919;DHT22;1974;48.670;8.994;2024-02-26T19:27:37;9.90;99.90
3919;DHT22;1974;48.670;8.994;2024-02-26T19:30:05;9.90;99.90
3919;DHT22;1974;48.670;8.994;2024-02-26T19:32:32;9.80;99.90
3919;DHT22;1974;48.670;8.994;2024-02-26T19:34:59;9.90;99.90
3919;DHT22;1974;48.670;8.994;2024-02-26T19:37:27;9.80;99.90
3919;DHT22;1974;48.670;8.994;2024-02-26T19:39:54;9.80;99.90
3919;DHT22;1974;48.670;8.994;2024-02-26T19:42:23;9.80;99.90
3919;DHT22;1974;48.670;8.994;2024-02-26T19:44:51;9.80;99.90
3919;DHT22;1974;48.670;8.994;2024-02-26T19:47:19;9.80;99.90
3919;DHT22;1974;48.670;8.994;2024-02-26T19:49:46;9.80;99.90
3919;DHT22;1974;48.670;8.994;2024-02-26T19:52:13;9.80;99.90
3919;DHT22;1974;48.670;8.994;2024-02-26T19:54:42;9.80;99.90
3919;DHT22;1974;48.670;8.994;2024-02-26T19:57:09;9.70;99.90
3919;DHT22;1974;48.670;8.994;2024-02-26T19:59:35;9.80;99.90
3919;DHT22;1974;48.670;8.994;2024-02-26T20:02:04;9.70;99.90
3919;DHT22;1974;48.670;8.994;2024-02-26T20:04:31;9.70;99.90
3919;DHT22;1974;48.670;8.994;2024-02-26T20:06:57;9.70;99.90
3919;DHT22;1974;48.670;8.994;2024-02-26T20:09:24;9.70;99.90
3919;DHT22;1974;48.670;8.994;2024-02-26T20:11:55;9.70;99.90
3919;DHT22;1974;48.670;8.994;2024-02-26T20:14:23;9.70;99.90
3919;DHT22;1974;48.670;8.994;2024-02-26T20:16:49;9.80;99.90
3919;DHT22;1974;48.670;8.994;2024-02-26T20:19:18;9.70;99.90
3919;DHT22;1974;48.670;8.994;2024-02-26T20:21:44;9.60;99.90
3919;DHT22;1974;48.670;8.994;2024-02-26T20:24:11;9.50;99.90
3919;DHT22;1974;48.670;8.994;2024-02-26T20:26:38;9.60;99.90
3919;DHT22;1974;48.670;8.994;2024-02-26T20:29:06;9.60;99.90
3919;DHT22;1974;48.670;8.994;2024-02-26T20:31:32;9.60;99.90
3919;DHT22;1974;48.670;8.994;2024-02-26T20:33:59;9.50;99.90
3919;DHT22;1974;48.670;8.994;2024-02-26T20:36:29;9.40;99.90
3919;DHT22;1974;48.670;8.994;2024-02-26T20:38:56;9.40;99.90
3919;DHT22;1974;48.670;8.994;2024-02-26T20:41:23;9.40;99.90
3919;DHT22;1974;48.670;8.994;2024-02-26T20:43:50;9.40;99.90
3919;DHT22;1974;48.670;8.994;2024-02-26T20:46:18;9.40;99.90
3919;DHT22;1974;48.670;8.994;2024-02-26T20:48:44;9.50;99.90
3919;DHT22;1974;48.670;8.994;2024-02-26T20:51:11;9.50;99.90
3919;DHT22;1974;48.670;8.994;2024-02-26T20:53:39;9.50;99.90
3919;DHT22;1974;48.670;8.994;2024-02-26T20:56:06;9.50;99.90
3919;DHT22;1974;48.670;8.994;2024-02-26T20:58:33;9.50;99.90
3919;DHT22;1974;48.670;8.994;2024-02-26T21:01:00;9.40;99.90
3919;DHT22;1974;48.670;8.994;2024-02-26T21:03:27;9.40;99.90
3919;DHT22;1974;48.670;8.994;2024-02-26T21:05:54;9.40;99.90
3919;DHT22;1974;48.670;8.994;2024-02-26T21:08:21;9.30;99.90
3919;DHT22;1974;48.670;8.994;2024-02-26T21:10:49;9.30;99.90
3919;DHT22;1974;48.670;8.994;2024-02-26T21:13:16;9.40;99.90
3919;DHT22;1974;48.670;8.994;2024-02-26T21:15:43;9.30;99.90
3919;DHT22;1974;48.670;8.994;2024-02-26T21:18:12;9.40;99.90
3919;DHT22;1974;48.670;8.994;2024-02-26T21:20:38;9.40;99.90
3919;DHT22;1974;48.670;8.994;2024-02-26T21:23:05;9.30;99.90
3919;DHT22;1974;48.670;8.994;2024-02-26T21:25:34;9.40;99.90
3919;DHT22;1974;48.670;8.994;2024-02-26T21:28:02;9.30;99.90
3919;DHT22;1974;48.670;8.994;2024-02-26T21:30:30;9.20;99.90
3919;DHT22;1974;48.670;8.994;2024-02-26T21:32:57;9.30;99.90
3919;DHT22;1974;48.670;8.994;2024-02-26T21:35:24;9.30;99.90
3919;DHT22;1974;48.670;8.994;2024-02-26T21:37:51;9.20;99.90
3919;DHT22;1974;48.670;8.994;2024-02-26T21:40:18;9.00;99.90
3919;DHT22;1974;48.670;8.994;2024-02-26T21:42:44;9.00;99.90